Augsburg, Illinois
Current Conditions -  °F | °C
As of 11:35 PM on Friday 24 Oct 2014 (Local Time) from KSLO Reporting Station
Scattered Clouds Scattered Clouds  
Wind Chill: 16°   Ceiling: Unl
Heat Index: 16°   Visibility: 10mi
Dew Point: 13°   Wind: 6mph
Humidity: 81%   Direction: 190°S
Pressure: 30.02"   Gusts: NA
Location:  38.8463°N, 89.0894°W
Report Text: KSLO 250435Z AUTO 19005KT 10SM SCT050 16/13 A3002 RMK AO2 T01600128
Loading
Personal Weather Stations






























Interactive Weather Map New forecast layout! Learn more

10-Day Weather Forecast

Advertisements
Track Severe Weather on mobile